sensor_id;sensor_type;location;lat;lon;timestamp;temperature;humidity
43338;DHT22;28933;52.492;13.434;2022-07-05T00:02:00;21.00;69.30
43338;DHT22;28933;52.492;13.434;2022-07-05T00:04:26;21.00;69.40
43338;DHT22;28933;52.492;13.434;2022-07-05T00:06:51;21.00;69.30
43338;DHT22;28933;52.492;13.434;2022-07-05T00:09:36;21.00;69.00
43338;DHT22;28933;52.492;13.434;2022-07-05T00:12:02;21.00;68.40
43338;DHT22;28933;52.492;13.434;2022-07-05T00:14:27;21.00;68.50
43338;DHT22;28933;52.492;13.434;2022-07-05T00:16:53;21.00;68.20
43338;DHT22;28933;52.492;13.434;2022-07-05T00:19:19;20.90;68.30
43338;DHT22;28933;52.492;13.434;2022-07-05T00:21:44;20.90;68.30
43338;DHT22;28933;52.492;13.434;2022-07-05T00:24:10;20.90;68.50
43338;DHT22;28933;52.492;13.434;2022-07-05T00:26:35;20.90;68.10
43338;DHT22;28933;52.492;13.434;2022-07-05T00:29:01;20.90;68.10
43338;DHT22;28933;52.492;13.434;2022-07-05T00:31:27;20.90;67.80
43338;DHT22;28933;52.492;13.434;2022-07-05T00:33:52;20.90;67.90
43338;DHT22;28933;52.492;13.434;2022-07-05T00:36:18;20.80;68.10
43338;DHT22;28933;52.492;13.434;2022-07-05T00:38:43;20.80;68.40
43338;DHT22;28933;52.492;13.434;2022-07-05T00:41:09;20.80;68.40
43338;DHT22;28933;52.492;13.434;2022-07-05T00:43:34;20.80;68.40
43338;DHT22;28933;52.492;13.434;2022-07-05T00:46:00;20.80;68.60
43338;DHT22;28933;52.492;13.434;2022-07-05T00:48:25;20.80;68.70
43338;DHT22;28933;52.492;13.434;2022-07-05T00:50:51;20.80;68.70
43338;DHT22;28933;52.492;13.434;2022-07-05T00:53:17;20.80;68.90
43338;DHT22;28933;52.492;13.434;2022-07-05T00:55:43;20.80;68.80
43338;DHT22;28933;52.492;13.434;2022-07-05T00:58:10;20.80;69.60
43338;DHT22;28933;52.492;13.434;2022-07-05T01:00:36;20.80;68.90
43338;DHT22;28933;52.492;13.434;2022-07-05T01:03:03;20.70;68.70
43338;DHT22;28933;52.492;13.434;2022-07-05T01:05:29;20.70;68.80
43338;DHT22;28933;52.492;13.434;2022-07-05T01:07:55;20.70;69.60
43338;DHT22;28933;52.492;13.434;2022-07-05T01:10:21;20.60;69.30
43338;DHT22;28933;52.492;13.434;2022-07-05T01:12:47;20.60;69.30
43338;DHT22;28933;52.492;13.434;2022-07-05T01:15:13;20.50;69.10
43338;DHT22;28933;52.492;13.434;2022-07-05T01:17:41;20.50;69.40
43338;DHT22;28933;52.492;13.434;2022-07-05T01:20:07;20.50;69.60
43338;DHT22;28933;52.492;13.434;2022-07-05T01:22:50;20.50;69.80
43338;DHT22;28933;52.492;13.434;2022-07-05T01:25:23;20.50;69.80
43338;DHT22;28933;52.492;13.434;2022-07-05T01:27:49;20.50;69.70
43338;DHT22;28933;52.492;13.434;2022-07-05T01:30:16;20.50;70.10
43338;DHT22;28933;52.492;13.434;2022-07-05T01:32:42;20.50;69.80
43338;DHT22;28933;52.492;13.434;2022-07-05T01:35:09;20.50;69.90
43338;DHT22;28933;52.492;13.434;2022-07-05T01:37:35;20.50;69.60
43338;DHT22;28933;52.492;13.434;2022-07-05T01:40:04;20.40;69.40
43338;DHT22;28933;52.492;13.434;2022-07-05T01:42:30;20.40;69.10
43338;DHT22;28933;52.492;13.434;2022-07-05T01:44:56;20.40;69.00
43338;DHT22;28933;52.492;13.434;2022-07-05T01:47:22;20.30;69.20
43338;DHT22;28933;52.492;13.434;2022-07-05T01:49:51;20.30;69.20
43338;DHT22;28933;52.492;13.434;2022-07-05T01:52:21;20.30;69.00
43338;DHT22;28933;52.492;13.434;2022-07-05T01:54:47;20.20;68.90
43338;DHT22;28933;52.492;13.434;2022-07-05T01:57:13;20.20;68.90
43338;DHT22;28933;52.492;13.434;2022-07-05T01:59:39;20.20;68.90
43338;DHT22;28933;52.492;13.434;2022-07-05T02:02:07;20.20;69.10
43338;DHT22;28933;52.492;13.434;2022-07-05T02:04:36;20.20;69.10
43338;DHT22;28933;52.492;13.434;2022-07-05T02:07:06;20.10;69.40
43338;DHT22;28933;52.492;13.434;2022-07-05T02:09:32;20.10;69.30
43338;DHT22;28933;52.492;13.434;2022-07-05T02:11:58;20.10;69.50
43338;DHT22;28933;52.492;13.434;2022-07-05T02:14:23;20.00;69.50
43338;DHT22;28933;52.492;13.434;2022-07-05T02:16:49;20.00;69.80
43338;DHT22;28933;52.492;13.434;2022-07-05T02:19:14;20.00;70.10
43338;DHT22;28933;52.492;13.434;2022-07-05T02:21:40;20.00;70.10
43338;DHT22;28933;52.492;13.434;2022-07-05T02:24:07;19.90;70.20
43338;DHT22;28933;52.492;13.434;2022-07-05T02:26:33;19.90;70.50
43338;DHT22;28933;52.492;13.434;2022-07-05T02:28:58;19.80;70.80
43338;DHT22;28933;52.492;13.434;2022-07-05T02:31:24;19.80;70.90
43338;DHT22;28933;52.492;13.434;2022-07-05T02:33:50;19.80;71.20
43338;DHT22;28933;52.492;13.434;2022-07-05T02:36:17;19.70;71.40
43338;DHT22;28933;52.492;13.434;2022-07-05T02:38:43;19.70;71.60
43338;DHT22;28933;52.492;13.434;2022-07-05T02:41:10;19.70;71.90
43338;DHT22;28933;52.492;13.434;2022-07-05T02:43:36;19.60;72.30
43338;DHT22;28933;52.492;13.434;2022-07-05T02:46:02;19.60;72.50
43338;DHT22;28933;52.492;13.434;2022-07-05T02:48:28;19.50;72.70
43338;DHT22;28933;52.492;13.434;2022-07-05T02:50:55;19.50;73.00
43338;DHT22;28933;52.492;13.434;2022-07-05T02:53:20;19.40;73.40
43338;DHT22;28933;52.492;13.434;2022-07-05T02:55:46;19.40;73.70
43338;DHT22;28933;52.492;13.434;2022-07-05T02:58:12;19.30;74.60
43338;DHT22;28933;52.492;13.434;2022-07-05T03:00:37;19.20;74.40
43338;DHT22;28933;52.492;13.434;2022-07-05T03:03:03;19.20;74.90
43338;DHT22;28933;52.492;13.434;2022-07-05T03:05:28;19.20;75.10
43338;DHT22;28933;52.492;13.434;2022-07-05T03:07:54;19.10;75.30
43338;DHT22;28933;52.492;13.434;2022-07-05T03:10:40;19.10;75.50
43338;DHT22;28933;52.492;13.434;2022-07-05T03:13:26;19.00;75.90
43338;DHT22;28933;52.492;13.434;2022-07-05T03:15:52;19.00;76.00
43338;DHT22;28933;52.492;13.434;2022-07-05T03:18:17;19.00;76.30
43338;DHT22;28933;52.492;13.434;2022-07-05T03:20:43;19.00;76.50
43338;DHT22;28933;52.492;13.434;2022-07-05T03:23:08;19.00;76.70
43338;DHT22;28933;52.492;13.434;2022-07-05T03:25:34;19.00;77.00
43338;DHT22;28933;52.492;13.434;2022-07-05T03:27:59;19.00;77.10
43338;DHT22;28933;52.492;13.434;2022-07-05T03:30:25;19.00;77.40
43338;DHT22;28933;52.492;13.434;2022-07-05T03:32:51;19.00;77.60
43338;DHT22;28933;52.492;13.434;2022-07-05T03:35:16;19.00;77.80
43338;DHT22;28933;52.492;13.434;2022-07-05T03:37:42;18.90;77.90
43338;DHT22;28933;52.492;13.434;2022-07-05T03:40:08;19.00;78.10
43338;DHT22;28933;52.492;13.434;2022-07-05T03:42:34;19.00;78.20
43338;DHT22;28933;52.492;13.434;2022-07-05T03:45:01;19.00;78.50
43338;DHT22;28933;52.492;13.434;2022-07-05T03:47:26;18.90;78.80
43338;DHT22;28933;52.492;13.434;2022-07-05T03:49:54;19.00;78.90
43338;DHT22;28933;52.492;13.434;2022-07-05T03:52:19;19.00;79.00
43338;DHT22;28933;52.492;13.434;2022-07-05T03:54:45;19.00;79.10
43338;DHT22;28933;52.492;13.434;2022-07-05T03:57:11;19.00;79.00
43338;DHT22;28933;52.492;13.434;2022-07-05T03:59:38;19.00;78.80
43338;DHT22;28933;52.492;13.434;2022-07-05T04:02:04;19.00;78.70
43338;DHT22;28933;52.492;13.434;2022-07-05T04:04:29;19.00;78.60
43338;DHT22;28933;52.492;13.434;2022-07-05T04:07:00;19.00;78.70
43338;DHT22;28933;52.492;13.434;2022-07-05T04:09:26;19.00;78.40
43338;DHT22;28933;52.492;13.434;2022-07-05T04:11:52;19.00;78.50
43338;DHT22;28933;52.492;13.434;2022-07-05T04:14:17;19.00;78.60
43338;DHT22;28933;52.492;13.434;2022-07-05T04:16:43;19.00;78.50
43338;DHT22;28933;52.492;13.434;2022-07-05T04:19:08;19.00;78.30
43338;DHT22;28933;52.492;13.434;2022-07-05T04:21:34;19.00;78.50
43338;DHT22;28933;52.492;13.434;2022-07-05T04:23:59;19.00;78.40
43338;DHT22;28933;52.492;13.434;2022-07-05T04:26:25;19.00;78.50
43338;DHT22;28933;52.492;13.434;2022-07-05T04:28:50;19.10;78.50
43338;DHT22;28933;52.492;13.434;2022-07-05T04:31:16;19.10;78.30
43338;DHT22;28933;52.492;13.434;2022-07-05T04:33:42;19.10;78.00
43338;DHT22;28933;52.492;13.434;2022-07-05T04:36:07;19.10;77.80
43338;DHT22;28933;52.492;13.434;2022-07-05T04:38:33;19.10;77.70
43338;DHT22;28933;52.492;13.434;2022-07-05T04:40:58;19.10;77.60
43338;DHT22;28933;52.492;13.434;2022-07-05T04:43:24;19.10;77.50
43338;DHT22;28933;52.492;13.434;2022-07-05T04:45:49;19.10;77.60
43338;DHT22;28933;52.492;13.434;2022-07-05T04:48:15;19.10;78.10
43338;DHT22;28933;52.492;13.434;2022-07-05T04:50:40;19.10;77.80
43338;DHT22;28933;52.492;13.434;2022-07-05T04:53:06;19.10;78.10
43338;DHT22;28933;52.492;13.434;2022-07-05T04:55:32;19.20;77.50
43338;DHT22;28933;52.492;13.434;2022-07-05T04:57:57;19.20;77.40
43338;DHT22;28933;52.492;13.434;2022-07-05T05:00:23;19.20;77.20
43338;DHT22;28933;52.492;13.434;2022-07-05T05:02:49;19.30;77.40
43338;DHT22;28933;52.492;13.434;2022-07-05T05:05:14;19.30;77.30
43338;DHT22;28933;52.492;13.434;2022-07-05T05:07:44;19.30;77.40
43338;DHT22;28933;52.492;13.434;2022-07-05T05:10:09;19.40;77.30
43338;DHT22;28933;52.492;13.434;2022-07-05T05:12:35;19.50;77.40
43338;DHT22;28933;52.492;13.434;2022-07-05T05:15:01;19.50;77.10
43338;DHT22;28933;52.492;13.434;2022-07-05T05:17:34;19.50;77.00
43338;DHT22;28933;52.492;13.434;2022-07-05T05:20:01;19.50;77.00
43338;DHT22;28933;52.492;13.434;2022-07-05T05:22:26;19.60;76.70
43338;DHT22;28933;52.492;13.434;2022-07-05T05:24:52;19.60;76.30
43338;DHT22;28933;52.492;13.434;2022-07-05T05:27:17;19.60;76.10
43338;DHT22;28933;52.492;13.434;2022-07-05T05:29:43;19.60;76.30
43338;DHT22;28933;52.492;13.434;2022-07-05T05:32:08;19.70;75.90
43338;DHT22;28933;52.492;13.434;2022-07-05T05:34:34;19.70;75.40
43338;DHT22;28933;52.492;13.434;2022-07-05T05:36:59;19.80;75.50
43338;DHT22;28933;52.492;13.434;2022-07-05T05:39:25;19.80;75.60
43338;DHT22;28933;52.492;13.434;2022-07-05T05:41:50;19.90;75.60
43338;DHT22;28933;52.492;13.434;2022-07-05T05:44:16;19.90;75.10
43338;DHT22;28933;52.492;13.434;2022-07-05T05:46:41;19.90;75.20
43338;DHT22;28933;52.492;13.434;2022-07-05T05:49:07;20.00;75.40
43338;DHT22;28933;52.492;13.434;2022-07-05T05:51:32;20.00;75.20
43338;DHT22;28933;52.492;13.434;2022-07-05T05:53:58;20.00;74.40
43338;DHT22;28933;52.492;13.434;2022-07-05T05:56:23;20.10;74.50
43338;DHT22;28933;52.492;13.434;2022-07-05T05:58:50;20.20;74.30
43338;DHT22;28933;52.492;13.434;2022-07-05T06:01:15;20.20;74.50
43338;DHT22;28933;52.492;13.434;2022-07-05T06:03:41;20.30;74.30
43338;DHT22;28933;52.492;13.434;2022-07-05T06:06:06;20.30;74.60
43338;DHT22;28933;52.492;13.434;2022-07-05T06:08:32;20.40;74.00
43338;DHT22;28933;52.492;13.434;2022-07-05T06:10:58;20.40;73.90
43338;DHT22;28933;52.492;13.434;2022-07-05T06:13:23;20.40;73.20
43338;DHT22;28933;52.492;13.434;2022-07-05T06:15:49;20.50;73.00
43338;DHT22;28933;52.492;13.434;2022-07-05T06:18:14;20.50;72.60
43338;DHT22;28933;52.492;13.434;2022-07-05T06:20:40;20.50;72.70
43338;DHT22;28933;52.492;13.434;2022-07-05T06:23:06;20.60;73.00
43338;DHT22;28933;52.492;13.434;2022-07-05T06:25:32;20.70;72.50
43338;DHT22;28933;52.492;13.434;2022-07-05T06:28:00;20.70;72.10
43338;DHT22;28933;52.492;13.434;2022-07-05T06:30:29;20.70;72.00
43338;DHT22;28933;52.492;13.434;2022-07-05T06:32:55;20.80;71.60
43338;DHT22;28933;52.492;13.434;2022-07-05T06:35:21;20.90;71.80
43338;DHT22;28933;52.492;13.434;2022-07-05T06:37:52;20.90;71.80
43338;DHT22;28933;52.492;13.434;2022-07-05T06:40:29;20.90;71.50
43338;DHT22;28933;52.492;13.434;2022-07-05T06:42:57;21.00;71.90
43338;DHT22;28933;52.492;13.434;2022-07-05T06:45:25;21.10;71.50
43338;DHT22;28933;52.492;13.434;2022-07-05T06:48:08;21.10;71.40
43338;DHT22;28933;52.492;13.434;2022-07-05T06:50:39;21.20;71.10
43338;DHT22;28933;52.492;13.434;2022-07-05T06:53:05;21.30;71.20
43338;DHT22;28933;52.492;13.434;2022-07-05T06:55:32;21.40;71.10
43338;DHT22;28933;52.492;13.434;2022-07-05T06:58:03;21.40;70.70
43338;DHT22;28933;52.492;13.434;2022-07-05T07:00:29;21.50;71.30
43338;DHT22;28933;52.492;13.434;2022-07-05T07:02:55;21.60;71.30
43338;DHT22;28933;52.492;13.434;2022-07-05T07:05:21;21.70;71.10
43338;DHT22;28933;52.492;13.434;2022-07-05T07:07:47;21.70;71.20
43338;DHT22;28933;52.492;13.434;2022-07-05T07:10:31;21.80;70.60
43338;DHT22;28933;52.492;13.434;2022-07-05T07:12:57;21.90;70.60
43338;DHT22;28933;52.492;13.434;2022-07-05T07:15:23;21.90;70.50
43338;DHT22;28933;52.492;13.434;2022-07-05T07:17:49;21.90;70.40
43338;DHT22;28933;52.492;13.434;2022-07-05T07:20:15;22.10;70.70
43338;DHT22;28933;52.492;13.434;2022-07-05T07:22:40;22.10;70.30
43338;DHT22;28933;52.492;13.434;2022-07-05T07:25:06;22.20;69.50
43338;DHT22;28933;52.492;13.434;2022-07-05T07:27:44;22.20;70.30
43338;DHT22;28933;52.492;13.434;2022-07-05T07:30:15;22.30;69.50
43338;DHT22;28933;52.492;13.434;2022-07-05T07:32:41;22.30;68.90
43338;DHT22;28933;52.492;13.434;2022-07-05T07:35:08;22.30;68.70
43338;DHT22;28933;52.492;13.434;2022-07-05T07:37:34;22.30;68.70
43338;DHT22;28933;52.492;13.434;2022-07-05T07:40:00;22.40;68.80
43338;DHT22;28933;52.492;13.434;2022-07-05T07:42:27;22.40;69.00
43338;DHT22;28933;52.492;13.434;2022-07-05T07:44:53;22.50;69.30
43338;DHT22;28933;52.492;13.434;2022-07-05T07:47:18;22.50;68.50
43338;DHT22;28933;52.492;13.434;2022-07-05T07:49:44;22.60;68.20
43338;DHT22;28933;52.492;13.434;2022-07-05T07:52:09;22.70;68.10
43338;DHT22;28933;52.492;13.434;2022-07-05T07:54:35;22.70;68.30
43338;DHT22;28933;52.492;13.434;2022-07-05T07:57:00;22.80;67.50
43338;DHT22;28933;52.492;13.434;2022-07-05T07:59:27;22.90;67.40
43338;DHT22;28933;52.492;13.434;2022-07-05T08:01:52;23.00;67.00
43338;DHT22;28933;52.492;13.434;2022-07-05T08:04:18;23.00;66.70
43338;DHT22;28933;52.492;13.434;2022-07-05T08:06:44;23.10;66.10
43338;DHT22;28933;52.492;13.434;2022-07-05T08:09:10;23.10;65.40
43338;DHT22;28933;52.492;13.434;2022-07-05T08:11:35;23.20;65.60
43338;DHT22;28933;52.492;13.434;2022-07-05T08:14:01;23.30;65.30
43338;DHT22;28933;52.492;13.434;2022-07-05T08:16:26;23.30;64.70
43338;DHT22;28933;52.492;13.434;2022-07-05T08:18:52;23.50;65.10
43338;DHT22;28933;52.492;13.434;2022-07-05T08:21:36;23.40;64.40
43338;DHT22;28933;52.492;13.434;2022-07-05T08:24:10;23.50;64.60
43338;DHT22;28933;52.492;13.434;2022-07-05T08:26:36;23.60;63.90
43338;DHT22;28933;52.492;13.434;2022-07-05T08:29:04;23.60;63.60
43338;DHT22;28933;52.492;13.434;2022-07-05T08:31:32;23.60;63.40
43338;DHT22;28933;52.492;13.434;2022-07-05T08:33:59;23.60;63.80
43338;DHT22;28933;52.492;13.434;2022-07-05T08:36:25;23.60;63.40
43338;DHT22;28933;52.492;13.434;2022-07-05T08:38:51;23.70;63.90
43338;DHT22;28933;52.492;13.434;2022-07-05T08:41:19;23.70;63.40
43338;DHT22;28933;52.492;13.434;2022-07-05T08:43:47;23.80;62.70
43338;DHT22;28933;52.492;13.434;2022-07-05T08:46:14;23.80;63.40
43338;DHT22;28933;52.492;13.434;2022-07-05T08:48:42;23.90;63.10
43338;DHT22;28933;52.492;13.434;2022-07-05T08:51:14;23.90;63.10
43338;DHT22;28933;52.492;13.434;2022-07-05T08:53:41;24.00;63.00
43338;DHT22;28933;52.492;13.434;2022-07-05T08:56:11;24.00;63.30
43338;DHT22;28933;52.492;13.434;2022-07-05T08:58:37;24.00;62.50
43338;DHT22;28933;52.492;13.434;2022-07-05T09:01:04;24.00;63.10
43338;DHT22;28933;52.492;13.434;2022-07-05T09:03:33;24.00;63.50
43338;DHT22;28933;52.492;13.434;2022-07-05T09:06:01;24.10;63.60
43338;DHT22;28933;52.492;13.434;2022-07-05T09:08:29;24.20;63.20
43338;DHT22;28933;52.492;13.434;2022-07-05T09:10:57;24.20;62.70
43338;DHT22;28933;52.492;13.434;2022-07-05T09:13:23;24.30;62.90
43338;DHT22;28933;52.492;13.434;2022-07-05T09:15:48;24.30;62.60
43338;DHT22;28933;52.492;13.434;2022-07-05T09:21:27;24.30;62.20
43338;DHT22;28933;52.492;13.434;2022-07-05T09:24:00;24.40;62.20
43338;DHT22;28933;52.492;13.434;2022-07-05T09:28:59;24.40;62.00
43338;DHT22;28933;52.492;13.434;2022-07-05T09:31:35;24.40;61.50
43338;DHT22;28933;52.492;13.434;2022-07-05T09:36:59;24.50;62.10
43338;DHT22;28933;52.492;13.434;2022-07-05T09:39:38;24.50;61.60
43338;DHT22;28933;52.492;13.434;2022-07-05T09:42:22;24.60;61.70
43338;DHT22;28933;52.492;13.434;2022-07-05T09:44:53;24.70;61.30
43338;DHT22;28933;52.492;13.434;2022-07-05T09:47:23;24.70;61.90
43338;DHT22;28933;52.492;13.434;2022-07-05T09:49:51;24.70;61.30
43338;DHT22;28933;52.492;13.434;2022-07-05T09:52:30;24.80;61.20
43338;DHT22;28933;52.492;13.434;2022-07-05T09:55:10;24.70;60.40
43338;DHT22;28933;52.492;13.434;2022-07-05T09:57:38;24.80;60.30
43338;DHT22;28933;52.492;13.434;2022-07-05T10:00:09;24.80;60.10
43338;DHT22;28933;52.492;13.434;2022-07-05T10:02:37;24.90;60.40
43338;DHT22;28933;52.492;13.434;2022-07-05T10:05:10;24.90;60.50
43338;DHT22;28933;52.492;13.434;2022-07-05T10:07:36;25.10;60.90
43338;DHT22;28933;52.492;13.434;2022-07-05T10:10:02;25.20;61.00
43338;DHT22;28933;52.492;13.434;2022-07-05T10:12:29;25.30;60.20
43338;DHT22;28933;52.492;13.434;2022-07-05T10:14:57;25.40;59.90
43338;DHT22;28933;52.492;13.434;2022-07-05T10:17:25;25.40;59.30
43338;DHT22;28933;52.492;13.434;2022-07-05T10:19:51;25.30;60.10
43338;DHT22;28933;52.492;13.434;2022-07-05T10:22:18;25.40;60.50
43338;DHT22;28933;52.492;13.434;2022-07-05T10:24:44;25.40;60.00
43338;DHT22;28933;52.492;13.434;2022-07-05T10:27:10;25.50;59.70
43338;DHT22;28933;52.492;13.434;2022-07-05T10:29:37;25.50;59.40
43338;DHT22;28933;52.492;13.434;2022-07-05T10:32:06;25.60;59.30
43338;DHT22;28933;52.492;13.434;2022-07-05T10:34:33;25.70;58.50
43338;DHT22;28933;52.492;13.434;2022-07-05T10:36:58;25.60;58.60
43338;DHT22;28933;52.492;13.434;2022-07-05T10:39:24;25.60;58.60
43338;DHT22;28933;52.492;13.434;2022-07-05T10:41:51;25.70;58.30
43338;DHT22;28933;52.492;13.434;2022-07-05T10:44:35;25.70;57.30
43338;DHT22;28933;52.492;13.434;2022-07-05T10:47:10;25.70;57.50
43338;DHT22;28933;52.492;13.434;2022-07-05T10:49:36;25.70;57.30
43338;DHT22;28933;52.492;13.434;2022-07-05T10:52:03;25.80;57.60
43338;DHT22;28933;52.492;13.434;2022-07-05T10:54:29;25.80;58.30
43338;DHT22;28933;52.492;13.434;2022-07-05T10:57:23;25.80;58.10
43338;DHT22;28933;52.492;13.434;2022-07-05T11:00:18;25.80;57.20
43338;DHT22;28933;52.492;13.434;2022-07-05T11:02:45;25.80;57.10
43338;DHT22;28933;52.492;13.434;2022-07-05T11:05:30;25.90;57.50
43338;DHT22;28933;52.492;13.434;2022-07-05T11:08:02;26.00;57.20
43338;DHT22;28933;52.492;13.434;2022-07-05T11:10:28;26.10;57.20
43338;DHT22;28933;52.492;13.434;2022-07-05T11:12:56;26.20;57.20
43338;DHT22;28933;52.492;13.434;2022-07-05T11:15:22;26.20;57.00
43338;DHT22;28933;52.492;13.434;2022-07-05T11:17:48;26.30;56.80
43338;DHT22;28933;52.492;13.434;2022-07-05T11:23:03;26.10;56.10
43338;DHT22;28933;52.492;13.434;2022-07-05T11:25:29;26.00;55.80
43338;DHT22;28933;52.492;13.434;2022-07-05T11:28:00;25.90;56.30
43338;DHT22;28933;52.492;13.434;2022-07-05T11:30:27;25.90;55.90
43338;DHT22;28933;52.492;13.434;2022-07-05T11:32:52;25.80;56.80
43338;DHT22;28933;52.492;13.434;2022-07-05T11:35:19;25.90;56.90
43338;DHT22;28933;52.492;13.434;2022-07-05T11:38:04;25.90;56.70
43338;DHT22;28933;52.492;13.434;2022-07-05T11:40:32;26.00;57.20
43338;DHT22;28933;52.492;13.434;2022-07-05T11:42:58;26.00;56.60
43338;DHT22;28933;52.492;13.434;2022-07-05T11:45:24;25.90;56.00
43338;DHT22;28933;52.492;13.434;2022-07-05T11:47:53;25.90;56.20
43338;DHT22;28933;52.492;13.434;2022-07-05T11:50:31;25.90;56.00
43338;DHT22;28933;52.492;13.434;2022-07-05T11:52:58;25.90;56.20
43338;DHT22;28933;52.492;13.434;2022-07-05T11:55:26;25.80;55.80
43338;DHT22;28933;52.492;13.434;2022-07-05T11:57:53;25.80;56.10
43338;DHT22;28933;52.492;13.434;2022-07-05T12:00:53;25.80;55.90
43338;DHT22;28933;52.492;13.434;2022-07-05T12:03:19;25.80;56.10
43338;DHT22;28933;52.492;13.434;2022-07-05T12:05:44;25.90;56.50
43338;DHT22;28933;52.492;13.434;2022-07-05T12:08:10;25.90;55.70
43338;DHT22;28933;52.492;13.434;2022-07-05T12:10:36;25.90;55.70
43338;DHT22;28933;52.492;13.434;2022-07-05T12:13:21;26.00;55.20
43338;DHT22;28933;52.492;13.434;2022-07-05T12:15:46;26.10;55.10
43338;DHT22;28933;52.492;13.434;2022-07-05T12:18:12;26.10;54.90
43338;DHT22;28933;52.492;13.434;2022-07-05T12:20:39;26.20;54.70
43338;DHT22;28933;52.492;13.434;2022-07-05T12:23:05;26.10;54.30
43338;DHT22;28933;52.492;13.434;2022-07-05T12:25:33;26.10;54.70
43338;DHT22;28933;52.492;13.434;2022-07-05T12:28:00;26.10;54.60
43338;DHT22;28933;52.492;13.434;2022-07-05T12:30:31;26.00;53.90
43338;DHT22;28933;52.492;13.434;2022-07-05T12:33:08;26.00;54.40
43338;DHT22;28933;52.492;13.434;2022-07-05T12:35:36;26.00;54.30
43338;DHT22;28933;52.492;13.434;2022-07-05T12:40:32;26.20;54.40
43338;DHT22;28933;52.492;13.434;2022-07-05T12:43:06;26.40;54.20
43338;DHT22;28933;52.492;13.434;2022-07-05T12:45:32;26.50;54.30
43338;DHT22;28933;52.492;13.434;2022-07-05T12:48:00;26.60;54.10
43338;DHT22;28933;52.492;13.434;2022-07-05T12:50:28;26.80;54.00
43338;DHT22;28933;52.492;13.434;2022-07-05T12:55:33;26.90;52.90
43338;DHT22;28933;52.492;13.434;2022-07-05T12:58:17;26.90;52.70
43338;DHT22;28933;52.492;13.434;2022-07-05T13:00:43;26.80;52.60
43338;DHT22;28933;52.492;13.434;2022-07-05T13:03:08;26.70;52.70
43338;DHT22;28933;52.492;13.434;2022-07-05T13:05:34;26.60;53.30
43338;DHT22;28933;52.492;13.434;2022-07-05T13:08:01;26.60;53.10
43338;DHT22;28933;52.492;13.434;2022-07-05T13:10:27;26.70;53.10
43338;DHT22;28933;52.492;13.434;2022-07-05T13:12:57;26.70;52.60
43338;DHT22;28933;52.492;13.434;2022-07-05T13:15:23;26.70;52.10
43338;DHT22;28933;52.492;13.434;2022-07-05T13:17:49;26.70;52.40
43338;DHT22;28933;52.492;13.434;2022-07-05T13:20:16;26.80;52.20
43338;DHT22;28933;52.492;13.434;2022-07-05T13:22:43;26.80;52.50
43338;DHT22;28933;52.492;13.434;2022-07-05T13:25:09;27.00;52.20
43338;DHT22;28933;52.492;13.434;2022-07-05T13:27:36;27.20;52.30
43338;DHT22;28933;52.492;13.434;2022-07-05T13:30:03;27.30;52.10
43338;DHT22;28933;52.492;13.434;2022-07-05T13:32:29;27.50;50.70
43338;DHT22;28933;52.492;13.434;2022-07-05T13:34:54;27.50;51.00
43338;DHT22;28933;52.492;13.434;2022-07-05T13:37:20;27.40;51.00
43338;DHT22;28933;52.492;13.434;2022-07-05T13:39:45;27.50;51.20
43338;DHT22;28933;52.492;13.434;2022-07-05T13:42:11;27.70;50.60
43338;DHT22;28933;52.492;13.434;2022-07-05T13:44:37;27.60;50.20
43338;DHT22;28933;52.492;13.434;2022-07-05T13:47:02;27.50;50.80
43338;DHT22;28933;52.492;13.434;2022-07-05T13:49:29;27.40;50.90
43338;DHT22;28933;52.492;13.434;2022-07-05T13:51:56;27.40;51.00
43338;DHT22;28933;52.492;13.434;2022-07-05T13:54:23;27.30;50.40
43338;DHT22;28933;52.492;13.434;2022-07-05T13:56:49;27.40;50.50
43338;DHT22;28933;52.492;13.434;2022-07-05T13:59:14;27.40;50.40
43338;DHT22;28933;52.492;13.434;2022-07-05T14:01:40;27.60;50.40
43338;DHT22;28933;52.492;13.434;2022-07-05T14:04:06;27.50;50.20
43338;DHT22;28933;52.492;13.434;2022-07-05T14:06:32;27.60;50.10
43338;DHT22;28933;52.492;13.434;2022-07-05T14:08:58;27.60;49.50
43338;DHT22;28933;52.492;13.434;2022-07-05T14:11:25;27.60;50.20
43338;DHT22;28933;52.492;13.434;2022-07-05T14:13:54;27.50;49.90
43338;DHT22;28933;52.492;13.434;2022-07-05T14:16:20;27.50;50.30
43338;DHT22;28933;52.492;13.434;2022-07-05T14:18:45;27.50;50.30
43338;DHT22;28933;52.492;13.434;2022-07-05T14:21:11;27.60;49.80
43338;DHT22;28933;52.492;13.434;2022-07-05T14:23:41;27.60;50.20
43338;DHT22;28933;52.492;13.434;2022-07-05T14:26:07;27.60;49.90
43338;DHT22;28933;52.492;13.434;2022-07-05T14:28:34;27.60;50.50
43338;DHT22;28933;52.492;13.434;2022-07-05T14:31:00;27.60;50.00
43338;DHT22;28933;52.492;13.434;2022-07-05T14:33:25;27.50;50.50
43338;DHT22;28933;52.492;13.434;2022-07-05T14:35:51;27.40;50.40
43338;DHT22;28933;52.492;13.434;2022-07-05T14:38:16;27.30;50.20
43338;DHT22;28933;52.492;13.434;2022-07-05T14:40:42;27.20;50.10
43338;DHT22;28933;52.492;13.434;2022-07-05T14:43:08;27.00;50.30
43338;DHT22;28933;52.492;13.434;2022-07-05T14:45:33;27.00;50.30
43338;DHT22;28933;52.492;13.434;2022-07-05T14:47:59;27.00;50.10
43338;DHT22;28933;52.492;13.434;2022-07-05T14:50:24;27.00;50.60
43338;DHT22;28933;52.492;13.434;2022-07-05T14:52:50;26.90;50.60
43338;DHT22;28933;52.492;13.434;2022-07-05T14:55:17;26.90;50.10
43338;DHT22;28933;52.492;13.434;2022-07-05T14:57:43;26.70;50.00
43338;DHT22;28933;52.492;13.434;2022-07-05T15:00:13;26.70;50.40
43338;DHT22;28933;52.492;13.434;2022-07-05T15:02:40;26.70;51.20
43338;DHT22;28933;52.492;13.434;2022-07-05T15:05:06;26.70;51.20
43338;DHT22;28933;52.492;13.434;2022-07-05T15:07:33;26.70;50.80
43338;DHT22;28933;52.492;13.434;2022-07-05T15:09:59;26.70;50.70
43338;DHT22;28933;52.492;13.434;2022-07-05T15:12:24;26.90;51.00
43338;DHT22;28933;52.492;13.434;2022-07-05T15:14:50;27.10;50.90
43338;DHT22;28933;52.492;13.434;2022-07-05T15:17:15;27.20;51.10
43338;DHT22;28933;52.492;13.434;2022-07-05T15:19:41;27.10;50.00
43338;DHT22;28933;52.492;13.434;2022-07-05T15:22:07;27.00;50.30
43338;DHT22;28933;52.492;13.434;2022-07-05T15:24:33;26.80;49.80
43338;DHT22;28933;52.492;13.434;2022-07-05T15:26:59;26.70;50.60
43338;DHT22;28933;52.492;13.434;2022-07-05T15:29:25;26.70;50.60
43338;DHT22;28933;52.492;13.434;2022-07-05T15:31:52;26.90;50.90
43338;DHT22;28933;52.492;13.434;2022-07-05T15:34:18;27.00;50.40